createdAt,value
2018-07-11T00:00:03.216Z,0
2018-07-11T00:05:02.799Z,0
2018-07-11T00:10:03.300Z,0
2018-07-11T00:15:02.771Z,0
2018-07-11T00:20:02.480Z,0
2018-07-11T00:25:02.864Z,0
2018-07-11T00:30:03.282Z,0
2018-07-11T00:35:02.827Z,0
2018-07-11T00:40:03.298Z,0
2018-07-11T00:45:02.704Z,0
2018-07-11T00:50:03.055Z,0
2018-07-11T00:55:02.421Z,0
2018-07-11T01:00:02.909Z,0
2018-07-11T01:05:02.380Z,0
2018-07-11T01:10:02.910Z,0
2018-07-11T01:15:02.396Z,0
2018-07-11T01:20:02.887Z,0
2018-07-11T01:25:02.353Z,0
2018-07-11T01:30:02.798Z,0
2018-07-11T01:35:03.248Z,0
2018-07-11T01:40:02.742Z,0
2018-07-11T01:45:03.180Z,0
2018-07-11T01:50:02.710Z,0
2018-07-11T01:55:03.099Z,0
2018-07-11T02:00:02.499Z,0
2018-07-11T02:05:02.902Z,0
2018-07-11T02:10:02.457Z,0
2018-07-11T02:15:02.942Z,0
2018-07-11T02:20:02.473Z,0
2018-07-11T02:25:02.918Z,0
2018-07-11T02:30:02.356Z,0
2018-07-11T02:35:02.805Z,0
2018-07-11T02:40:03.298Z,0
2018-07-11T02:45:02.699Z,1
2018-07-11T02:50:03.207Z,2
2018-07-11T02:55:02.625Z,4
2018-07-11T03:00:03.308Z,9
2018-07-11T03:05:02.694Z,17
2018-07-11T03:10:03.198Z,26
2018-07-11T03:15:02.684Z,36
2018-07-11T03:20:03.155Z,47
2018-07-11T03:25:02.526Z,58
2018-07-11T03:30:02.993Z,70
2018-07-11T03:35:02.506Z,135
2018-07-11T03:40:03.033Z,222
2018-07-11T03:45:02.474Z,326
2018-07-11T03:50:03.013Z,386
2018-07-11T03:55:02.421Z,454
2018-07-11T04:00:02.925Z,584
2018-07-11T04:05:02.414Z,861
2018-07-11T04:10:02.962Z,962
2018-07-11T04:15:02.428Z,962
2018-07-11T04:20:02.912Z,1000
2018-07-11T04:25:03.378Z,1000
2018-07-11T04:30:02.754Z,1000
2018-07-11T04:35:03.274Z,1000
2018-07-11T04:40:02.805Z,1000
2018-07-11T04:45:03.277Z,1000
2018-07-11T04:50:02.835Z,1000
2018-07-11T04:55:02.347Z,2000
2018-07-11T05:00:02.875Z,2000
2018-07-11T05:05:02.398Z,1000
2018-07-11T05:10:02.972Z,1000
2018-07-11T05:15:02.499Z,1000
2018-07-11T05:20:03.011Z,1000
2018-07-11T05:25:02.493Z,2000
2018-07-11T05:30:03.021Z,2000
2018-07-11T05:35:02.447Z,2000
2018-07-11T05:40:02.900Z,2000
2018-07-11T05:45:03.472Z,2000
2018-07-11T05:50:02.933Z,2000
2018-07-11T05:55:02.389Z,2000
2018-07-11T06:00:03.191Z,2000
2018-07-11T06:05:03.091Z,2000
2018-07-11T06:10:02.570Z,3000
2018-07-11T06:15:03.124Z,3000
2018-07-11T06:20:02.608Z,4000
2018-07-11T06:25:02.925Z,4000
2018-07-11T06:30:02.360Z,4000
2018-07-11T06:35:02.867Z,4000
2018-07-11T06:40:02.425Z,4000
2018-07-11T06:45:02.897Z,4000
2018-07-11T06:50:02.372Z,6000
2018-07-11T06:55:02.851Z,7000
2018-07-11T07:00:03.523Z,7000
2018-07-11T07:05:03.068Z,8000
2018-07-11T07:10:02.616Z,8000
2018-07-11T07:15:03.096Z,8000
2018-07-11T07:20:02.536Z,8000
2018-07-11T07:25:03.050Z,7000
2018-07-11T07:30:02.479Z,8000
2018-07-11T07:35:02.966Z,9000
2018-07-11T07:40:02.484Z,9000
2018-07-11T07:45:02.985Z,10000
2018-07-11T07:50:02.451Z,22000
2018-07-11T07:55:02.899Z,27000
2018-07-11T08:00:02.431Z,35000
2018-07-11T08:05:03.122Z,39000
2018-07-11T08:10:02.554Z,48000
2018-07-11T08:15:03.035Z,49000
2018-07-11T08:20:02.613Z,41000
2018-07-11T08:25:03.089Z,49000
2018-07-11T08:30:02.578Z,53000
2018-07-11T08:35:03.140Z,55000
2018-07-11T08:40:02.863Z,23000
2018-07-11T08:45:02.363Z,22000
2018-07-11T08:50:02.895Z,45000
2018-07-11T08:55:03.356Z,24000
2018-07-11T09:00:02.918Z,34000
2018-07-11T09:05:02.487Z,17000
2018-07-11T09:10:03.022Z,27000
2018-07-11T09:15:02.497Z,14000
2018-07-11T09:20:03.012Z,13000
2018-07-11T09:25:02.517Z,11000
2018-07-11T09:30:02.966Z,10000
2018-07-11T09:35:02.903Z,12000
2018-07-11T09:40:02.363Z,19000
2018-07-11T09:45:02.765Z,17000
2018-07-11T09:50:03.231Z,31000
2018-07-11T09:55:02.674Z,45000
2018-07-11T10:00:03.331Z,24000
2018-07-11T10:05:02.801Z,13000
2018-07-11T10:10:02.410Z,48000
2018-07-11T10:15:02.921Z,55000
2018-07-11T10:20:02.476Z,52000
2018-07-11T10:25:03.024Z,22000
2018-07-11T10:30:02.402Z,55000
2018-07-11T10:35:02.965Z,32000
2018-07-11T10:40:02.447Z,11000
2018-07-11T10:45:02.978Z,33000
2018-07-11T10:50:03.020Z,24000
2018-07-11T10:55:02.377Z,57000
2018-07-11T11:00:02.855Z,28000
2018-07-11T11:05:03.349Z,21000
2018-07-11T11:10:02.860Z,28000
2018-07-11T11:15:03.238Z,18000
2018-07-11T11:20:02.752Z,15000
2018-07-11T11:25:03.229Z,13000
2018-07-11T11:30:02.707Z,47000
2018-07-11T11:35:03.249Z,15000
2018-07-11T11:40:02.796Z,38000
2018-07-11T11:45:02.374Z,29000
2018-07-11T11:50:02.832Z,11000
2018-07-11T11:55:03.304Z,53000
2018-07-11T12:00:02.805Z,24000
2018-07-11T12:05:02.355Z,10000
2018-07-11T12:10:02.869Z,8000
2018-07-11T12:15:03.254Z,17000
2018-07-11T12:20:02.676Z,15000
2018-07-11T12:25:03.137Z,16000
2018-07-11T12:30:02.592Z,6000
2018-07-11T12:35:03.052Z,3000
2018-07-11T12:40:02.553Z,5000
2018-07-11T12:45:02.986Z,6000
2018-07-11T12:50:02.541Z,5000
2018-07-11T12:55:03.108Z,5000
2018-07-11T13:00:02.591Z,4000
2018-07-11T13:05:03.041Z,4000
2018-07-11T13:10:02.554Z,5000
2018-07-11T13:15:03.104Z,7000
2018-07-11T13:20:02.580Z,10000
2018-07-11T13:25:03.093Z,47000
2018-07-11T13:30:02.567Z,24000
2018-07-11T13:35:03.285Z,11000
2018-07-11T13:40:02.768Z,18000
2018-07-11T13:45:03.299Z,38000
2018-07-11T13:50:02.965Z,43000
2018-07-11T13:55:02.447Z,33000
2018-07-11T14:00:03.163Z,27000
2018-07-11T14:05:02.780Z,14000
2018-07-11T14:10:03.249Z,12000
2018-07-11T14:15:02.708Z,5000
2018-07-11T14:20:03.344Z,1000
2018-07-11T14:25:02.980Z,1000
2018-07-11T14:30:02.868Z,2000
2018-07-11T14:35:02.444Z,3000
2018-07-11T14:40:03.032Z,4000
2018-07-11T14:45:02.584Z,7000
2018-07-11T14:50:03.066Z,12000
2018-07-11T14:55:02.548Z,10000
2018-07-11T15:00:03.056Z,7000
2018-07-11T15:05:02.579Z,6000
2018-07-11T15:10:03.120Z,8000
2018-07-11T15:15:02.519Z,10000
2018-07-11T15:20:02.998Z,9000
2018-07-11T15:25:02.418Z,9000
2018-07-11T15:30:02.871Z,5000
2018-07-11T15:35:02.373Z,2000
2018-07-11T15:40:02.882Z,2000
2018-07-11T15:45:02.378Z,2000
2018-07-11T15:50:03.330Z,2000
2018-07-11T15:55:02.755Z,3000
2018-07-11T16:00:03.608Z,4000
2018-07-11T16:05:02.701Z,4000
2018-07-11T16:10:02.462Z,2000
2018-07-11T16:15:02.899Z,2000
2018-07-11T16:20:02.540Z,2000
2018-07-11T16:25:03.018Z,2000
2018-07-11T16:30:02.520Z,2000
2018-07-11T16:35:02.989Z,3000
2018-07-11T16:40:02.424Z,5000
2018-07-11T16:45:02.999Z,2000
2018-07-11T16:50:02.457Z,2000
2018-07-11T16:55:02.958Z,3000
2018-07-11T17:00:02.459Z,3000
2018-07-11T17:05:02.347Z,2000
2018-07-11T17:10:03.005Z,2000
2018-07-11T17:15:02.452Z,1000
2018-07-11T17:20:02.994Z,1000
2018-07-11T17:25:02.448Z,2000
2018-07-11T17:30:02.897Z,2000
2018-07-11T17:35:03.317Z,2000
2018-07-11T17:40:02.919Z,2000
2018-07-11T17:45:02.453Z,3000
2018-07-11T17:50:03.022Z,3000
2018-07-11T17:55:02.550Z,4000
2018-07-11T18:00:02.977Z,4000
2018-07-11T18:05:02.474Z,2000
2018-07-11T18:10:03.012Z,1000
2018-07-11T18:15:02.598Z,2000
2018-07-11T18:20:03.317Z,2000
2018-07-11T18:25:02.784Z,1000
2018-07-11T18:30:03.257Z,1000
2018-07-11T18:35:02.713Z,1000
2018-07-11T18:40:03.127Z,1000
2018-07-11T18:45:02.662Z,983
2018-07-11T18:50:03.071Z,705
2018-07-11T18:55:02.579Z,550
2018-07-11T19:00:03.061Z,539
2018-07-11T19:05:02.761Z,408
2018-07-11T19:10:02.306Z,293
2018-07-11T19:15:02.799Z,331
2018-07-11T19:20:03.411Z,228
2018-07-11T19:25:02.926Z,318
2018-07-11T19:30:02.971Z,104
2018-07-11T19:35:02.510Z,57
2018-07-11T19:40:03.046Z,52
2018-07-11T19:45:02.554Z,36
2018-07-11T19:50:03.077Z,39
2018-07-11T19:55:02.563Z,48
2018-07-11T20:00:03.378Z,47
2018-07-11T20:05:02.827Z,38
2018-07-11T20:10:02.348Z,29
2018-07-11T20:15:02.809Z,21
2018-07-11T20:20:02.619Z,15
2018-07-11T20:25:03.314Z,8
2018-07-11T20:30:02.548Z,4
2018-07-11T20:35:02.993Z,2
2018-07-11T20:40:02.481Z,0
2018-07-11T20:45:03.098Z,0
2018-07-11T20:50:02.600Z,0
2018-07-11T20:55:03.140Z,0
2018-07-11T21:00:02.586Z,0
2018-07-11T21:05:03.054Z,0
2018-07-11T21:10:02.533Z,0
2018-07-11T21:15:02.955Z,0
2018-07-11T21:20:02.476Z,0
2018-07-11T21:25:02.910Z,0
2018-07-11T21:30:03.283Z,0
2018-07-11T21:35:02.684Z,0
2018-07-11T21:40:03.342Z,0
2018-07-11T21:45:02.763Z,0
2018-07-11T21:50:03.136Z,0
2018-07-11T21:55:02.562Z,0
2018-07-11T22:00:03.084Z,0
2018-07-11T22:05:02.524Z,0
2018-07-11T22:10:03.042Z,0
2018-07-11T22:15:02.493Z,0
2018-07-11T22:20:02.976Z,0
2018-07-11T22:25:02.456Z,0
2018-07-11T22:30:02.983Z,0
2018-07-11T22:35:02.693Z,0
2018-07-11T22:40:03.134Z,0
2018-07-11T22:45:02.579Z,0
2018-07-11T22:50:03.023Z,0
2018-07-11T22:55:02.444Z,0
2018-07-11T23:00:02.958Z,0
2018-07-11T23:05:02.383Z,0
2018-07-11T23:10:02.906Z,0
2018-07-11T23:15:02.348Z,0
2018-07-11T23:20:02.942Z,0
2018-07-11T23:25:02.436Z,0
2018-07-11T23:30:02.955Z,0
2018-07-11T23:35:02.524Z,0
2018-07-11T23:40:03.014Z,0
2018-07-11T23:45:02.441Z,0
2018-07-11T23:50:02.886Z,0
2018-07-11T23:55:03.325Z,0
